Latest Coastal Weather Observations for Wyndham Airport

IDD60701

Issued at 10:51 am CST Sunday 26 March 2017 (issued every 10 minutes, with the page automatically refreshed every 10 minutes)

About coastal observations | Map of coastal stations | Coastal observations for NT | Marine services | Other Formats
Station Details ID: 001006 Name: WYNDHAM AERO Lat: -15.51 Lon: 128.15 Height: 3.8 m
Data from the previous 72 hours. | See also: Recent months at Wyndham Airport
Date/Time
CST
Temp
°C
Wind Pressure Rain since
9am
mm
Weather Cloud Vis
km
Sea
Height
m
Swell
Dir  Spd
kts
Gust
kts
hPa Trend Height
m
Period
s
Dir
26/10:30am 30.7 CALM 0 1 1009.7 - 0.2 - - - - - - -
26/10:00am 30.3 CALM 0 0 1010.0 - 0.2 - - - - - - -
26/09:30am 29.4 SSW 1 4 1010.0 - 0.2 - - - - - - -
26/09:00am 28.4 CALM 0 0 1009.7 - 0.2 - - - - - - -
26/08:30am 28.4 E 1 4 1009.5 - 0.2 - - - - - - -
26/08:00am 27.4 CALM 0 0 1009.1 - 0.2 - - - - - - -
26/07:30am 25.3 CALM 0 0 1008.6 - 0.2 - - - - - - -
26/07:00am 24.8 N 2 4 1008.4 - 0.2 - - - - - - -
26/06:30am 25.0 NNE 4 5 1008.2 - 0.2 - - - - - - -
26/06:00am 24.9 N 3 4 1007.9 - 0.2 - - - - - - -
26/05:30am 25.0 CALM 0 1 1007.6 - 0.2 - - - - - - -
26/05:00am 24.8 NNW 5 6 1007.3 - 0.2 - - - - - - -
26/04:30am 25.1 NW 3 5 1007.1 - 0.2 - - - - - - -
26/04:00am 24.7 NE 5 6 1006.9 - 0.2 - - - - - - -
26/03:30am 25.4 ESE 12 16 1007.5 - 0.2 - - - - - - -
26/03:00am 25.0 ENE 9 11 1007.8 - 0.2 - - - - - - -
26/02:30am 26.6 E 12 16 1008.3 - 0.0 - - - - - - -
26/02:00am 27.0 E 15 20 1008.8 - 0.0 - - - - - - -
26/01:30am 27.4 E 9 13 1008.8 - 0.0 - - - - - - -
26/01:00am 28.1 E 9 14 1008.8 - 0.0 - - - - - - -
26/12:30am 27.9 ENE 7 9 1008.7 - 0.0 - - - - - - -
26/12:00am 28.5 E 7 8 1008.5 - 0.0 - - - - - - -
 
Date/Time
CST
Temp
°C
Wind Pressure Rain since
9am
mm
Weather Cloud Vis
km
Sea
Height
m
Swell
Dir  Spd
kts
Gust
kts
hPa Trend Height
m
Period
s
Dir
25/11:30pm 28.0 E 5 6 1008.1 - 0.0 - - - - - - -
25/11:00pm 28.3 SE 1 5 1007.9 - 0.0 - - - - - - -
25/10:30pm 28.5 CALM 0 0 1007.7 - 0.0 - - - - - - -
25/10:00pm 28.0 NNE 3 4 1007.8 - 0.0 - - - - - - -
25/09:30pm 28.2 NNE 4 5 1007.7 - 0.0 - - - - - - -
25/09:00pm 28.7 CALM 0 2 1007.6 - 0.0 - - - - - - -
25/08:30pm 29.3 ESE 5 7 1007.2 - 0.0 - - - - - - -
25/08:00pm 29.5 E 7 9 1006.7 - 0.0 - - - - - - -
25/07:30pm 29.6 E 8 11 1005.8 - 0.0 - - - - - - -
25/07:00pm 30.3 E 12 16 1006.2 - 0.0 - - - - - - -
25/06:30pm 31.2 ESE 8 10 1005.2 - 0.0 - - - - - - -
25/06:00pm 31.4 ESE 9 11 1004.8 - 0.0 - - - - - - -
25/05:30pm 32.7 ESE 9 12 1004.5 - 0.0 - - - - - - -
25/05:00pm 33.2 NNE 9 15 1003.8 - 0.0 - - - - - - -
25/04:30pm 31.6 N 12 16 1004.3 - 0.0 - - - - - - -
25/04:00pm 29.5 N 18 25 1004.8 - 0.0 - - - - - - -
25/03:30pm 29.8 NNE 19 34 1005.1 - 0.0 - - - - - - -
25/03:28pm 30.5 NE 14 33 1005.1 - 0.0 - - - - - - -
25/03:25pm 32.0 E 9 25 1004.9 - 0.0 - - - - - - -
25/03:00pm 36.9 SE 5 9 1004.9 - 0.0 - - - - - - -
25/02:30pm 36.3 SE 5 8 1005.1 - 0.0 - - - - - - -
25/02:00pm 35.8 SE 6 8 1005.6 - 0.0 - - - - - - -
25/01:30pm 36.0 NE 2 8 1005.8 - 0.0 - - - - - - -
25/01:00pm 34.9 S 4 6 1006.7 - 0.0 - - - - - - -
25/12:30pm 35.2 SE 5 7 1007.3 - 0.0 - - - - - - -
25/12:00pm 34.7 SE 5 6 1007.8 - 0.0 - - - - - - -
25/11:30am 33.7 SSE 5 8 1008.2 - 0.0 - - - - - - -
25/11:00am 33.1 SE 7 9 1008.7 - 0.0 - - - - - - -
25/10:30am 32.4 SE 7 9 1008.8 - 0.0 - - - - - - -
25/10:00am 32.0 SE 6 8 1008.9 - 0.0 - - - - - - -
25/09:30am 31.8 ESE 5 6 1008.9 - 0.0 - - - - - - -
25/09:00am 31.1 E 4 5 1008.7 - 0.0 - - - - - - -
25/08:30am 30.2 ENE 4 5 1008.5 - 0.0 - - - - - - -
25/08:00am 27.8 NE 4 6 1008.1 - 0.0 - - - - - - -
25/07:30am 27.0 NE 3 4 1008.0 - 0.0 - - - - - - -
25/07:00am 26.7 ENE 3 4 1007.8 - 0.0 - - - - - - -
25/06:30am 27.1 E 6 8 1007.3 - 0.0 - - - - - - -
25/06:00am 26.6 SE 3 5 1006.6 - 0.0 - - - - - - -
25/05:30am 26.8 NE 1 3 1006.2 - 0.0 - - - - - - -
25/05:00am 26.8 E 4 6 1005.8 - 0.0 - - - - - - -
25/04:30am 26.8 E 5 6 1005.4 - 0.0 - - - - - - -
25/04:00am 27.1 E 5 6 1005.8 - 0.0 - - - - - - -
25/03:30am 27.4 E 7 8 1006.2 - 0.0 - - - - - - -
25/03:00am 27.7 ESE 9 13 1006.9 - 0.0 - - - - - - -
25/02:30am 27.5 CALM 0 0 1007.2 - 0.0 - - - - - - -
25/02:00am 27.4 CALM 0 0 1007.3 - 0.0 - - - - - - -
25/01:30am 27.3 CALM 0 0 1007.6 - 0.0 - - - - - - -
25/01:00am 27.3 CALM 0 1 1007.7 - 0.0 - - - - - - -
25/12:30am 28.1 SE 1 3 1008.0 - 0.0 - - - - - - -
25/12:00am 27.8 NE 2 4 1008.2 - 0.0 - - - - - - -
 
Date/Time
CST
Temp
°C
Wind Pressure Rain since
9am
mm
Weather Cloud Vis
km
Sea
Height
m
Swell
Dir  Spd
kts
Gust
kts
hPa Trend Height
m
Period
s
Dir
24/11:30pm 28.1 CALM 0 3 1008.4 - 0.0 - - - - - - -
24/11:00pm 28.5 CALM 0 0 1008.3 - 0.0 - - - - - - -
24/10:30pm 28.6 CALM 0 0 1008.3 - 0.0 - - - - - - -
24/10:00pm 29.0 NW 3 4 1007.9 - 0.0 - - - - - - -
24/09:30pm 29.0 NNW 4 6 1007.6 - 0.0 - - - - - - -
24/09:00pm 28.5 NE 4 5 1007.1 - 0.0 - - - - - - -
24/08:30pm 29.0 NNW 4 6 1006.3 - 0.0 - - - - - - -
24/08:00pm 28.7 ENE 7 8 1005.9 - 0.0 - - - - - - -
24/07:30pm 29.0 E 7 8 1005.6 - 0.0 - - - - - - -
24/07:00pm 29.6 E 9 12 1005.4 - 0.0 - - - - - - -
24/06:30pm 30.0 ESE 9 13 1005.4 - 0.0 - - - - - - -
24/06:00pm 30.5 ESE 13 19 1005.3 - 0.0 - - - - - - -
24/05:34pm 30.3 ENE 15 25 1005.3 - 0.0 - - - - - - -
24/05:30pm 30.3 ENE 17 25 1005.3 - 0.0 - - - - - - -
24/05:00pm 32.8 NE 11 25 1004.9 - 0.0 - - - - - - -
24/04:59pm 33.2 NE 10 25 1004.8 - 0.0 - - - - - - -
24/04:30pm 36.6 ENE 6 9 1004.4 - 0.0 - - - - - - -
24/04:00pm 37.5 E 5 8 1004.4 - 0.0 - - - - - - -
24/03:30pm 37.3 SE 8 11 1004.9 - 0.0 - - - - - - -
24/03:00pm 37.3 SE 6 8 1005.3 - 0.0 - - - - - - -
24/02:30pm 36.7 ESE 5 8 1005.5 - 0.0 - - - - - - -
24/02:00pm 36.4 SE 6 9 1006.1 - 0.0 - - - - - - -
24/01:30pm 36.5 SE 6 8 1006.6 - 0.0 - - - - - - -
24/01:00pm 35.5 SSW 5 8 1007.0 - 0.0 - - - - - - -
24/12:30pm 35.6 SSW 4 9 1007.8 - 0.0 - - - - - - -
24/12:00pm 35.1 NW 4 6 1008.3 - 0.0 - - - - - - -
24/11:30am 35.2 SW 1 4 1008.8 - 0.0 - - - - - - -
24/11:00am 33.3 WSW 3 7 1009.1 - 0.0 - - - - - - -
24/10:30am 32.7 NW 3 5 1009.1 - 0.0 - - - - - - -
24/10:00am 32.1 WSW 3 5 1009.2 - 0.0 - - - - - - -
24/09:30am 31.5 WSW 2 4 1009.2 - 0.0 - - - - - - -
24/09:00am 30.8 ESE 4 5 1009.1 - 0.0 - - - - - - -
24/08:30am 29.5 SE 3 5 1009.0 - 0.0 - - - - - - -
24/08:00am 28.8 ENE 2 4 1008.9 - 0.0 - - - - - - -
24/07:30am 27.0 NE 4 5 1008.6 - 0.0 - - - - - - -
24/07:00am 26.7 E 4 5 1008.3 - 0.0 - - - - - - -
24/06:30am 26.6 ENE 2 5 1008.1 - 0.0 - - - - - - -
24/06:00am 27.0 CALM 0 0 1008.0 - 0.0 - - - - - - -
24/05:30am 26.8 NNE 1 4 1007.8 - 0.0 - - - - - - -
24/05:00am 27.4 SE 2 4 1007.4 - 0.0 - - - - - - -
24/04:30am 27.5 ESE 3 5 1007.7 - 0.0 - - - - - - -
24/04:00am 27.2 SE 3 4 1007.7 - 0.0 - - - - - - -
24/03:30am 27.5 CALM 0 0 1007.8 - 0.0 - - - - - - -
24/03:00am 27.3 CALM 0 0 1007.9 - 0.0 - - - - - - -
24/02:30am 27.8 CALM 0 0 1007.5 - 0.0 - - - - - - -
24/02:00am 28.2 CALM 0 0 1007.7 - 0.0 - - - - - - -
24/01:30am 27.9 N 2 4 1008.0 - 0.0 - - - - - - -
24/01:00am 28.1 N 2 3 1008.3 - 0.0 - - - - - - -
24/12:30am 28.4 CALM 0 0 1008.5 - 0.0 - - - - - - -
24/12:00am 28.3 NE 3 4 1008.7 - 0.0 - - - - - - -
 
Date/Time
CST
Temp
°C
Wind Pressure Rain since
9am
mm
Weather Cloud Vis
km
Sea
Height
m
Swell
Dir  Spd
kts
Gust
kts
hPa Trend Height
m
Period
s
Dir
23/11:30pm 28.3 NNE 3 4 1009.0 - 0.0 - - - - - - -
23/11:00pm 28.5 NNE 3 4 1009.4 - 0.0 - - - - - - -
23/10:30pm 28.9 ESE 2 4 1009.3 - 0.0 - - - - - - -
23/10:00pm 28.7 NE 3 5 1009.2 - 0.0 - - - - - - -
23/09:30pm 28.9 ESE 5 7 1008.9 - 0.0 - - - - - - -
23/09:00pm 29.1 ENE 8 11 1008.3 - 0.0 - - - - - - -
23/08:30pm 29.9 E 9 13 1008.1 - 0.0 - - - - - - -
23/08:00pm 30.4 ESE 9 15 1007.7 - 0.0 - - - - - - -
23/07:30pm 30.7 SE 5 7 1007.3 - 0.0 - - - - - - -
23/07:00pm 31.8 E 8 11 1006.5 - 0.0 - - - - - - -
23/06:30pm 32.8 NE 6 7 1006.2 - 0.0 - - - - - - -
23/06:00pm 33.8 SSE 6 8 1005.9 - 0.0 - - - - - - -
23/05:30pm 33.4 ESE 9 13 1006.1 - 0.0 - - - - - - -
23/05:00pm 36.3 SSW 7 11 1005.8 - 0.0 - - - - - - -
23/04:30pm 35.4 SW 11 15 1005.4 - 0.0 - - - - - - -
23/04:00pm 36.1 N 4 9 1005.8 - 0.0 - - - - - - -
23/03:30pm 37.4 SE 5 8 1006.0 - 0.0 - - - - - - -
23/03:00pm 37.3 NNW 2 7 1006.3 - 0.0 - - - - - - -
23/02:30pm 36.9 ESE 5 8 1006.8 - 0.0 - - - - - - -
23/02:00pm 37.1 S 5 7 1007.0 - 0.0 - - - - - - -
23/01:30pm 35.6 SSW 5 9 1007.3 - 0.0 - - - - - - -
23/01:00pm 35.7 WNW 5 9 1007.9 - 0.0 - - - - - - -
23/12:30pm 36.3 N 2 5 1008.6 - 0.0 - - - - - - -

Other Formats:

Comma delimited format used in spreadsheet applications
http://www.bom.gov.au/fwo/IDD60701/IDD60701.95214.axf

JavaScript Object Notation format (JSON) in row-major order
http://www.bom.gov.au/fwo/IDD60701/IDD60701.95214.json